Time;durP1;ratioP1;P1;durP2;ratioP2;P2;SDS_P1;SDS_P2;PMS_P1;PMS_P2;Temp;Humidity;BMP_temperature;BMP_pressure;BME280_temperature;BME280_humidity;BME280_pressure;Samples;Min_cycle;Max_cycle;Signal;HPM_P1;HPM_P2
2023/09/28 00:03:04;;;;;;;9.48;5.05;;;;;;;20.23;46.37;99632.91;4369488;32;33742;-86
2023/09/28 00:05:32;;;;;;;12.20;6.18;;;;;;;20.10;47.45;99641.91;4360426;32;34682;-86
2023/09/28 00:08:00;;;;;;;10.23;5.82;;;;;;;20.08;47.03;99643.72;4360317;32;34534;-86
2023/09/28 00:10:30;;;;;;;10.23;5.60;;;;;;;20.19;46.89;99641.72;4357613;32;33851;-86
2023/09/28 00:12:58;;;;;;;9.93;5.62;;;;;;;20.12;46.03;99642.78;4358906;32;33559;-86
2023/09/28 00:15:25;;;;;;;12.10;5.80;;;;;;;19.95;47.03;99642.19;4359820;32;33633;-85
2023/09/28 00:17:54;;;;;;;11.07;5.50;;;;;;;19.94;47.05;99641.34;4346630;32;33987;-87
2023/09/28 00:20:22;;;;;;;12.13;5.28;;;;;;;20.11;46.99;99639.25;4343853;33;34201;-86
2023/09/28 00:22:56;;;;;;;10.73;5.55;;;;;;;20.17;46.32;99635.66;4345032;33;33815;-86
2023/09/28 00:25:24;;;;;;;10.02;5.57;;;;;;;20.24;46.66;99629.38;4345040;33;34060;-85
2023/09/28 00:27:53;;;;;;;9.75;5.78;;;;;;;19.79;46.88;99634.56;4367609;32;33374;-86
2023/09/28 00:30:22;;;;;;;9.30;5.03;;;;;;;20.09;47.78;99633.16;4350348;32;33860;-86
2023/09/28 00:32:52;;;;;;;12.55;5.80;;;;;;;20.26;47.00;99630.19;4350452;32;33764;-84
2023/09/28 00:35:20;;;;;;;10.07;5.78;;;;;;;20.26;47.50;99631.97;4353629;32;33968;-85
2023/09/28 00:37:49;;;;;;;11.50;5.95;;;;;;;20.28;47.26;99632.81;4357354;32;34186;-86
2023/09/28 00:40:22;;;;;;;13.43;5.78;;;;;;;20.29;47.57;99631.91;4344040;32;34088;-86
2023/09/28 00:42:51;;;;;;;12.43;5.70;;;;;;;20.08;48.30;99638.47;4348492;32;33759;-85
2023/09/28 00:45:21;;;;;;;10.70;5.87;;;;;;;20.11;47.83;99638.38;4351905;32;34872;-85
2023/09/28 00:47:51;;;;;;;10.48;6.03;;;;;;;20.05;48.47;99633.25;4352077;32;34634;-85
2023/09/28 00:50:20;;;;;;;11.07;5.15;;;;;;;20.02;47.74;99630.66;4357600;32;34694;-85
2023/09/28 00:52:52;;;;;;;9.38;5.45;;;;;;;20.10;46.29;99620.84;4356037;32;33678;-85
2023/09/28 00:55:21;;;;;;;11.35;5.43;;;;;;;19.98;46.76;99623.72;4353965;32;33962;-85
2023/09/28 00:57:50;;;;;;;12.23;5.45;;;;;;;20.09;47.06;99622.63;4365016;32;33789;-84
2023/09/28 01:00:18;;;;;;;11.80;5.97;;;;;;;20.08;47.01;99626.16;4357713;32;34031;-86
2023/09/28 01:02:50;;;;;;;11.65;5.82;;;;;;;20.05;46.69;99627.97;4347320;32;34927;-85
2023/09/28 01:05:19;;;;;;;11.07;5.12;;;;;;;20.16;46.21;99636.56;4344887;32;34640;-83
2023/09/28 01:07:47;;;;;;;15.07;6.00;;;;;;;19.85;46.88;99625.69;4348772;32;35338;-85
2023/09/28 01:10:22;;;;;;;12.70;6.30;;;;;;;19.97;46.38;99622.00;4353206;32;34982;-84
2023/09/28 01:12:51;;;;;;;12.15;5.20;;;;;;;20.31;45.81;99620.47;4359094;32;34152;-85
2023/09/28 01:15:19;;;;;;;12.60;5.93;;;;;;;20.46;45.63;99624.56;4347519;32;33947;-83
2023/09/28 01:17:47;;;;;;;12.93;5.93;;;;;;;20.41;45.95;99616.72;4348758;32;34131;-86
2023/09/28 01:20:34;;;;;;;15.50;5.62;;;;;;;20.33;45.93;99617.78;4353397;32;33365;-85
2023/09/28 01:23:03;;;;;;;11.63;5.80;;;;;;;20.53;45.55;99620.03;4360688;32;33398;-86
2023/09/28 01:25:34;;;;;;;11.07;4.87;;;;;;;20.28;46.58;99615.25;4359972;32;33940;-86
2023/09/28 01:28:01;;;;;;;9.57;5.85;;;;;;;20.33;46.89;99618.66;4351344;32;34211;-88
2023/09/28 01:30:29;;;;;;;10.18;5.50;;;;;;;20.35;46.80;99613.37;4359317;32;34073;-84
2023/09/28 01:32:57;;;;;;;10.27;5.32;;;;;;;20.48;46.41;99612.22;4349536;32;34195;-86
2023/09/28 01:35:25;;;;;;;10.05;5.60;;;;;;;20.36;47.11;99613.31;4353816;32;34144;-86
2023/09/28 01:38:19;;;;;;;14.07;6.20;;;;;;;20.46;46.50;99608.75;4355025;32;34156;-85
2023/09/28 01:40:48;;;;;;;9.27;5.53;;;;;;;20.29;46.81;99613.47;4357146;32;35025;-86
2023/09/28 01:43:18;;;;;;;11.00;5.35;;;;;;;19.99;46.76;99612.28;4348245;32;33865;-86
2023/09/28 01:45:46;;;;;;;12.65;5.55;;;;;;;20.37;46.52;99624.72;4357368;32;34672;-86
2023/09/28 01:48:15;;;;;;;15.35;6.05;;;;;;;19.88;47.32;99621.25;4355700;32;33886;-85
2023/09/28 01:50:43;;;;;;;9.63;5.72;;;;;;;20.24;46.30;99629.38;4346279;33;34201;-86
2023/09/28 01:53:10;;;;;;;9.88;5.45;;;;;;;20.12;46.45;99632.25;4346032;32;33812;-85
2023/09/28 01:55:38;;;;;;;10.45;5.87;;;;;;;20.09;46.54;99632.28;4356401;32;33733;-86
2023/09/28 01:58:07;;;;;;;11.18;5.72;;;;;;;19.77;47.21;99627.59;4360014;32;34139;-86
2023/09/28 02:00:38;;;;;;;10.32;5.57;;;;;;;20.00;46.86;99633.34;4349396;32;33915;-85
2023/09/28 02:03:08;;;;;;;12.43;5.18;;;;;;;19.73;47.62;99632.03;4346026;32;34751;-84
2023/09/28 02:05:37;;;;;;;13.50;6.37;;;;;;;19.79;47.25;99634.56;4346327;33;34097;-85
2023/09/28 02:08:05;;;;;;;14.32;6.22;;;;;;;19.59;47.70;99636.66;4346043;33;33977;-86
2023/09/28 02:10:33;;;;;;;11.05;5.45;;;;;;;19.77;47.30;99627.59;4349666;32;33939;-85
2023/09/28 02:13:01;;;;;;;10.85;5.43;;;;;;;20.18;46.26;99622.44;4361005;32;33737;-86
2023/09/28 02:15:30;;;;;;;13.60;5.65;;;;;;;20.21;46.50;99621.53;4360281;32;33689;-85
2023/09/28 02:17:57;;;;;;;12.25;5.85;;;;;;;20.08;46.65;99627.94;4361061;32;35121;-86
2023/09/28 02:20:25;;;;;;;10.93;5.95;;;;;;;19.82;47.23;99621.38;4358037;32;33670;-85
2023/09/28 02:22:53;;;;;;;12.05;5.70;;;;;;;19.98;46.87;99621.09;4344788;33;33803;-86
2023/09/28 02:25:23;;;;;;;12.02;5.32;;;;;;;19.93;47.02;99623.81;4345852;33;33816;-84
2023/09/28 02:27:52;;;;;;;11.45;5.82;;;;;;;20.31;46.76;99624.88;4349363;32;34285;-86
2023/09/28 02:30:22;;;;;;;11.32;5.57;;;;;;;20.28;46.40;99628.41;4357397;32;35068;-85
2023/09/28 02:32:51;;;;;;;10.18;5.15;;;;;;;19.84;47.17;99630.09;4351216;32;33800;-84
2023/09/28 02:35:20;;;;;;;11.27;5.30;;;;;;;19.86;47.31;99633.56;4353953;32;33387;-85
2023/09/28 02:37:48;;;;;;;9.85;5.85;;;;;;;19.75;47.61;99635.53;4345955;32;34044;-86
2023/09/28 02:40:17;;;;;;;11.02;5.72;;;;;;;20.02;47.52;99630.66;4351609;32;34409;-84
2023/09/28 02:42:49;;;;;;;13.88;6.05;;;;;;;20.04;46.99;99642.91;4353135;32;33087;-81
2023/09/28 02:45:17;;;;;;;10.40;5.62;;;;;;;19.82;47.55;99631.91;4346084;32;33611;-84
2023/09/28 02:47:47;;;;;;;9.43;5.90;;;;;;;19.70;48.32;99629.47;4357270;32;34102;-85
2023/09/28 02:50:18;;;;;;;15.00;5.75;;;;;;;19.79;47.96;99631.06;4358073;32;34570;-84
2023/09/28 02:52:47;;;;;;;10.57;5.87;;;;;;;19.89;48.00;99628.25;4351027;32;33402;-84
2023/09/28 02:55:17;;;;;;;10.32;6.05;;;;;;;19.79;48.78;99621.41;4347819;32;34161;-84
2023/09/28 02:57:47;;;;;;;10.57;5.70;;;;;;;19.51;48.35;99620.09;4354369;32;34262;-85
2023/09/28 03:00:32;;;;;;;10.65;5.47;;;;;;;19.78;48.54;99618.81;4350771;32;34177;-85
2023/09/28 03:03:02;;;;;;;11.12;5.87;;;;;;;20.00;48.39;99630.72;4347049;32;34283;-84
2023/09/28 03:05:30;;;;;;;9.48;5.57;;;;;;;19.97;48.10;99624.62;4353891;32;34881;-84
2023/09/28 03:07:58;;;;;;;9.38;5.80;;;;;;;19.93;48.43;99624.69;4360306;32;34881;-85
2023/09/28 03:10:26;;;;;;;13.25;5.93;;;;;;;19.83;49.11;99631.00;4358609;32;34084;-84
2023/09/28 03:12:57;;;;;;;12.77;6.00;;;;;;;19.91;48.96;99622.97;4347346;32;34054;-84
2023/09/28 03:15:24;;;;;;;11.45;6.05;;;;;;;19.95;48.94;99626.41;4353346;32;33979;-84
2023/09/28 03:17:53;;;;;;;15.82;6.00;;;;;;;20.04;49.55;99627.13;4353272;32;34290;-84
2023/09/28 03:20:21;;;;;;;10.50;6.05;;;;;;;20.06;49.76;99630.56;4357643;32;35019;-84
2023/09/28 03:22:49;;;;;;;11.40;6.03;;;;;;;19.89;49.30;99628.25;4347935;32;34824;-85
2023/09/28 03:25:20;;;;;;;10.82;5.90;;;;;;;19.97;49.01;99629.91;4358877;32;34671;-84
2023/09/28 03:27:53;;;;;;;11.85;6.40;;;;;;;19.84;49.54;99637.97;4357410;32;33700;-84
2023/09/28 03:30:22;;;;;;;11.85;5.97;;;;;;;19.90;49.32;99627.34;4354918;32;34932;-85
2023/09/28 03:32:50;;;;;;;11.45;6.28;;;;;;;19.76;49.68;99632.00;4358960;32;33633;-84
2023/09/28 03:35:18;;;;;;;11.38;6.43;;;;;;;19.77;50.17;99633.72;4352324;32;34634;-83
2023/09/28 03:37:47;;;;;;;11.23;6.22;;;;;;;19.79;50.26;99638.97;4345266;32;34310;-83
2023/09/28 03:40:16;;;;;;;10.50;6.28;;;;;;;19.75;50.03;99643.41;4345624;32;33904;-85
2023/09/28 03:42:48;;;;;;;10.25;6.40;;;;;;;19.68;50.60;99647.91;4354680;32;33781;-85
2023/09/28 03:45:20;;;;;;;12.20;6.62;;;;;;;19.73;50.45;99650.44;4357743;32;34611;-85
2023/09/28 03:47:50;;;;;;;12.73;6.35;;;;;;;19.40;51.16;99655.34;4351873;32;34120;-85
2023/09/28 03:50:20;;;;;;;14.43;6.32;;;;;;;19.56;50.68;99650.72;4357078;32;34144;-83
2023/09/28 03:52:48;;;;;;;11.82;6.15;;;;;;;19.57;50.61;99651.56;4346033;32;34404;-85
2023/09/28 03:55:18;;;;;;;9.23;6.45;;;;;;;19.52;50.47;99654.28;4359744;32;33951;-84
2023/09/28 03:57:47;;;;;;;12.40;6.30;;;;;;;19.41;51.04;99658.84;4360381;32;33850;-85
2023/09/28 04:00:16;;;;;;;12.85;6.60;;;;;;;19.28;51.42;99655.53;4353866;32;35026;-84
2023/09/28 04:02:48;;;;;;;10.85;6.70;;;;;;;19.11;51.79;99652.28;4358654;32;34519;-84
2023/09/28 04:05:21;;;;;;;13.95;6.78;;;;;;;19.18;51.45;99653.91;4350818;32;33859;-83
2023/09/28 04:07:50;;;;;;;11.88;6.53;;;;;;;19.12;51.60;99652.22;4345273;33;35080;-85
2023/09/28 04:10:19;;;;;;;13.30;6.50;;;;;;;18.97;51.98;99655.06;4355910;32;34338;-83
2023/09/28 04:12:54;;;;;;;14.30;6.70;;;;;;;19.01;52.16;99661.16;4347074;32;33567;-85
2023/09/28 04:15:25;;;;;;;10.13;6.37;;;;;;;19.08;52.08;99650.53;4345512;32;33431;-85
2023/09/28 04:17:52;;;;;;;10.25;6.72;;;;;;;19.07;52.43;99655.84;4345963;32;34507;-84
2023/09/28 04:20:20;;;;;;;12.25;6.50;;;;;;;19.09;51.94;99648.78;4348273;32;34271;-85
2023/09/28 04:22:48;;;;;;;12.02;6.62;;;;;;;18.86;51.93;99651.72;4346723;32;33380;-84
2023/09/28 04:25:18;;;;;;;17.75;7.10;;;;;;;18.91;52.02;99660.44;4354121;32;34819;-84
2023/09/28 04:27:47;;;;;;;15.80;6.05;;;;;;;19.13;51.66;99653.09;4355989;32;35062;-85
2023/09/28 04:30:14;;;;;;;10.35;6.30;;;;;;;19.07;51.34;99655.84;4348072;32;34327;-84
2023/09/28 04:32:42;;;;;;;10.77;6.15;;;;;;;18.92;51.18;99656.91;4345515;32;34603;-86
2023/09/28 04:35:10;;;;;;;10.52;5.93;;;;;;;19.08;51.20;99658.44;4356293;32;32535;-84
2023/09/28 04:37:39;;;;;;;13.07;6.30;;;;;;;19.01;51.06;99663.78;4351195;32;33759;-85
2023/09/28 04:40:08;;;;;;;13.77;6.60;;;;;;;18.84;51.66;99664.88;4354824;32;35102;-86
2023/09/28 04:42:36;;;;;;;14.20;6.70;;;;;;;18.94;51.98;99663.88;4359536;32;33827;-86
2023/09/28 04:45:04;;;;;;;10.82;6.78;;;;;;;18.98;51.69;99661.19;4355968;32;34662;-83
2023/09/28 04:47:32;;;;;;;13.35;6.18;;;;;;;19.24;50.97;99672.22;4352566;32;34419;-84
2023/09/28 04:50:03;;;;;;;12.20;6.45;;;;;;;18.98;51.19;99667.34;4346801;32;34848;-85
2023/09/28 04:52:31;;;;;;;11.98;6.47;;;;;;;19.05;51.83;99670.75;4353653;32;34138;-86
2023/09/28 04:54:59;;;;;;;14.85;6.75;;;;;;;19.25;51.59;99679.22;4348798;32;34092;-86
2023/09/28 04:57:26;;;;;;;10.40;6.30;;;;;;;18.96;51.59;99680.50;4351188;32;34337;-84
2023/09/28 04:59:55;;;;;;;10.73;6.93;;;;;;;18.52;52.76;99681.00;4346539;32;35391;-86
2023/09/28 05:02:23;;;;;;;12.43;7.47;;;;;;;18.81;52.83;99688.56;4345451;32;33546;-86
2023/09/28 05:04:50;;;;;;;14.07;6.82;;;;;;;18.92;52.38;99686.69;4349776;32;33614;-87
2023/09/28 05:07:18;;;;;;;10.05;6.78;;;;;;;18.75;52.33;99683.38;4353994;32;34151;-84
2023/09/28 05:09:47;;;;;;;9.55;6.50;;;;;;;18.58;52.80;99682.69;4355513;32;34114;-86
2023/09/28 05:12:14;;;;;;;15.48;6.55;;;;;;;18.70;52.77;99687.78;4352383;32;33846;-86
2023/09/28 05:14:41;;;;;;;15.07;6.70;;;;;;;18.67;52.55;99687.81;4351707;32;33868;-86
2023/09/28 05:17:09;;;;;;;14.15;6.62;;;;;;;18.43;53.37;99695.09;4344388;33;34952;-86
2023/09/28 05:19:36;;;;;;;12.60;6.68;;;;;;;18.63;53.38;99684.34;4344052;33;33534;-85
2023/09/28 05:22:04;;;;;;;14.20;7.03;;;;;;;18.76;52.54;99690.38;4344405;33;32712;-86
2023/09/28 05:24:32;;;;;;;12.10;6.50;;;;;;;18.87;52.46;99690.25;4349741;32;34225;-85
2023/09/28 05:26:59;;;;;;;10.45;6.22;;;;;;;18.40;53.32;99695.13;4358955;32;35146;-85
2023/09/28 05:29:29;;;;;;;16.10;6.72;;;;;;;18.51;53.09;99700.25;4359323;32;34499;-84
2023/09/28 05:31:57;;;;;;;12.75;6.30;;;;;;;18.64;53.31;99695.75;4359107;32;33815;-83
2023/09/28 05:34:25;;;;;;;12.57;6.95;;;;;;;18.46;53.41;99697.69;4358892;32;33519;-84
2023/09/28 05:36:52;;;;;;;10.82;7.05;;;;;;;18.69;53.55;99700.06;4351550;32;33821;-83
2023/09/28 05:39:21;;;;;;;12.02;6.80;;;;;;;18.94;52.66;99697.16;4344089;33;35164;-84
2023/09/28 05:41:49;;;;;;;14.38;7.37;;;;;;;19.08;52.22;99702.25;4344059;33;34597;-83
2023/09/28 05:44:16;;;;;;;16.40;6.80;;;;;;;18.95;52.24;99702.41;4346313;32;33572;-83
2023/09/28 05:46:44;;;;;;;10.00;6.28;;;;;;;18.91;52.45;99708.59;4360215;32;34074;-83
2023/09/28 05:49:13;;;;;;;12.48;6.68;;;;;;;18.54;53.42;99707.25;4361210;32;34253;-83
2023/09/28 05:51:40;;;;;;;11.52;6.80;;;;;;;18.70;53.06;99701.81;4361411;32;33396;-83
2023/09/28 05:54:08;;;;;;;16.73;6.97;;;;;;;18.83;52.79;99702.56;4356090;32;33909;-84
2023/09/28 05:56:35;;;;;;;12.70;6.68;;;;;;;19.05;52.39;99699.66;4346251;33;34216;-84
2023/09/28 05:59:03;;;;;;;12.77;7.18;;;;;;;19.07;52.22;99703.13;4346259;33;34268;-84
2023/09/28 06:01:31;;;;;;;16.77;7.65;;;;;;;19.12;52.52;99704.78;4345920;33;34099;-84
2023/09/28 06:03:58;;;;;;;14.55;6.85;;;;;;;19.10;52.80;99703.09;4346106;33;34620;-84
2023/09/28 06:06:27;;;;;;;13.93;7.43;;;;;;;19.14;52.46;99717.94;4346035;33;33586;-86
2023/09/28 06:08:54;;;;;;;11.52;7.10;;;;;;;18.81;52.72;99717.47;4345983;33;34393;-86
2023/09/28 06:11:22;;;;;;;14.27;7.30;;;;;;;19.03;52.64;99717.22;4346230;33;33659;-84
2023/09/28 06:13:50;;;;;;;12.18;6.60;;;;;;;18.72;52.77;99717.59;4346210;33;33600;-84
2023/09/28 06:16:37;;;;;;;11.75;7.00;;;;;;;18.74;53.20;99721.03;4346299;33;35114;-84
2023/09/28 06:19:05;;;;;;;11.50;6.90;;;;;;;18.63;53.66;99725.50;4346257;33;34090;-83
2023/09/28 06:21:33;;;;;;;13.62;7.57;;;;;;;18.89;53.14;99726.13;4346046;33;33778;-85
2023/09/28 06:24:01;;;;;;;13.27;6.50;;;;;;;18.81;53.50;99721.84;4345002;33;33648;-84
2023/09/28 06:26:29;;;;;;;13.68;6.95;;;;;;;18.71;53.80;99721.06;4344859;33;34956;-86
2023/09/28 06:29:10;;;;;;;14.80;6.93;;;;;;;18.82;53.41;99723.56;4346062;33;35017;-84
2023/09/28 06:31:38;;;;;;;12.02;7.05;;;;;;;19.11;52.70;99720.59;4344750;33;33436;-84
2023/09/28 06:34:06;;;;;;;13.77;6.65;;;;;;;18.76;53.26;99718.41;4344823;33;34656;-84
2023/09/28 06:36:34;;;;;;;11.25;6.68;;;;;;;18.96;52.95;99717.28;4345938;33;34186;-84
2023/09/28 06:39:05;;;;;;;14.02;6.80;;;;;;;19.01;53.28;99724.22;4345941;33;34803;-84
2023/09/28 06:41:32;;;;;;;13.15;6.70;;;;;;;19.05;52.93;99725.91;4345736;33;33792;-86
2023/09/28 06:44:00;;;;;;;12.10;7.15;;;;;;;18.83;53.69;99728.84;4346169;33;34724;-87
2023/09/28 06:46:28;;;;;;;15.75;7.40;;;;;;;19.27;52.83;99722.12;4345787;33;34031;-86
2023/09/28 06:48:56;;;;;;;12.93;6.95;;;;;;;19.13;53.09;99721.44;4344384;33;35602;-86
2023/09/28 06:51:25;;;;;;;15.02;7.12;;;;;;;19.42;52.69;99727.16;4345773;33;33796;-85
2023/09/28 06:53:54;;;;;;;11.32;7.05;;;;;;;19.32;53.29;99724.69;4361632;32;34860;-86
2023/09/28 06:56:22;;;;;;;13.27;7.35;;;;;;;19.27;53.17;99737.91;4374836;32;34229;-86
2023/09/28 06:58:50;;;;;;;15.80;8.10;;;;;;;19.08;53.50;99737.25;4375626;32;33774;-87
2023/09/28 07:01:18;;;;;;;20.92;7.40;;;;;;;19.33;53.20;99724.69;4375679;32;34783;-85
2023/09/28 07:03:52;;;;;;;13.20;7.50;;;;;;;19.74;51.65;99723.25;4367482;32;33911;-86
2023/09/28 07:06:24;;;;;;;12.10;6.93;;;;;;;19.64;52.31;99734.78;4346606;32;35160;-86
2023/09/28 07:08:55;;;;;;;13.90;7.43;;;;;;;19.57;52.46;99735.72;4345690;33;34274;-84
2023/09/28 07:11:24;;;;;;;13.15;7.45;;;;;;;19.75;51.93;99730.22;4345820;33;33837;-84
2023/09/28 07:13:52;;;;;;;11.68;6.90;;;;;;;19.69;51.53;99744.34;4345707;33;33597;-83
2023/09/28 07:16:20;;;;;;;12.85;7.22;;;;;;;19.90;51.39;99744.91;4345025;32;33144;-85
2023/09/28 07:18:48;;;;;;;14.38;7.28;;;;;;;19.71;51.71;99746.09;4345745;33;34336;-83
2023/09/28 07:21:16;;;;;;;15.00;7.95;;;;;;;19.79;51.75;99750.34;4345898;33;33274;-84
2023/09/28 07:23:44;;;;;;;12.95;7.15;;;;;;;19.68;51.52;99754.88;4345809;33;33727;-84
2023/09/28 07:26:14;;;;;;;13.93;7.20;;;;;;;19.79;51.73;99752.09;4357064;32;34286;-84
2023/09/28 07:28:43;;;;;;;12.15;6.80;;;;;;;19.86;51.37;99751.97;4371365;32;35023;-84
2023/09/28 07:31:11;;;;;;;10.75;6.70;;;;;;;19.88;51.40;99757.22;4360461;32;34891;-85
2023/09/28 07:33:41;;;;;;;15.05;7.07;;;;;;;19.99;51.62;99754.41;4359324;32;34523;-85
2023/09/28 07:36:09;;;;;;;12.02;6.90;;;;;;;20.10;52.04;99760.38;4349212;32;34856;-84
2023/09/28 07:38:36;;;;;;;11.32;7.22;;;;;;;20.18;51.46;99756.69;4345594;33;35102;-84
2023/09/28 07:41:04;;;;;;;12.27;7.10;;;;;;;20.38;51.37;99766.91;4345545;33;33709;-83
2023/09/28 07:43:32;;;;;;;17.70;7.72;;;;;;;20.56;50.87;99762.22;4345411;33;33582;-83
2023/09/28 07:46:00;;;;;;;12.55;7.55;;;;;;;20.21;50.69;99766.31;4354715;32;33883;-86
2023/09/28 07:48:28;;;;;;;12.98;7.25;;;;;;;20.18;51.13;99761.09;4358792;32;34067;-83
2023/09/28 07:50:55;;;;;;;13.60;7.53;;;;;;;20.23;51.04;99763.66;4360231;32;33751;-83
2023/09/28 07:53:23;;;;;;;14.65;7.57;;;;;;;20.65;49.92;99762.94;4360367;32;33645;-84
2023/09/28 07:55:51;;;;;;;16.95;7.40;;;;;;;20.40;49.79;99764.25;4359376;32;34713;-85
2023/09/28 07:58:19;;;;;;;13.05;7.07;;;;;;;20.48;50.03;99761.47;4359877;32;34684;-85
2023/09/28 08:00:54;;;;;;;14.00;7.82;;;;;;;20.85;49.15;99765.19;4354158;32;34535;-83
2023/09/28 08:03:22;;;;;;;20.75;7.55;;;;;;;20.49;49.87;99760.56;4358924;32;33972;-82
2023/09/28 08:05:50;;;;;;;14.75;7.75;;;;;;;20.79;48.80;99770.56;4359912;32;35008;-84
2023/09/28 08:08:18;;;;;;;14.13;7.55;;;;;;;21.17;48.24;99766.28;4359221;32;34305;-83
2023/09/28 08:10:47;;;;;;;15.95;6.97;;;;;;;21.11;48.81;99766.44;4360233;32;33517;-86
2023/09/28 08:13:16;;;;;;;15.10;7.03;;;;;;;21.50;48.39;99753.31;4356226;32;33576;-83
2023/09/28 08:15:46;;;;;;;12.27;7.25;;;;;;;21.55;47.76;99762.00;4344204;33;34243;-83
2023/09/28 08:18:14;;;;;;;13.02;7.35;;;;;;;21.94;46.66;99762.00;4345298;33;35043;-84
2023/09/28 08:20:43;;;;;;;11.60;7.12;;;;;;;22.10;46.41;99765.97;4345299;33;33326;-84
2023/09/28 08:23:26;;;;;;;21.45;8.07;;;;;;;22.12;47.42;99766.78;4345869;32;33850;-84
2023/09/28 08:25:54;;;;;;;14.32;6.78;;;;;;;22.57;47.38;99759.50;4344768;32;34131;-83
2023/09/28 08:28:22;;;;;;;14.00;6.47;;;;;;;22.87;46.66;99756.06;4345745;32;33739;-83
2023/09/28 08:30:53;;;;;;;14.75;7.22;;;;;;;22.59;45.99;99760.34;4364942;32;33307;-83
2023/09/28 08:33:24;;;;;;;13.82;7.70;;;;;;;22.57;45.60;99764.78;4375115;32;34601;-86
2023/09/28 08:35:52;;;;;;;11.90;6.82;;;;;;;22.54;45.84;99764.87;4362843;32;34230;-83
2023/09/28 08:38:20;;;;;;;12.10;6.57;;;;;;;22.85;45.74;99768.47;4359625;32;33999;-84
2023/09/28 08:40:48;;;;;;;15.18;6.87;;;;;;;23.19;45.21;99760.47;4354172;32;33857;-84
2023/09/28 08:43:21;;;;;;;15.77;7.60;;;;;;;22.57;45.80;99761.28;4350757;32;34828;-83
2023/09/28 08:45:51;;;;;;;12.93;7.15;;;;;;;22.80;46.34;99764.16;4373100;32;34099;-83
2023/09/28 08:48:22;;;;;;;13.82;7.20;;;;;;;23.24;45.14;99759.41;4372788;32;34202;-83
2023/09/28 08:50:54;;;;;;;15.45;7.32;;;;;;;23.14;44.97;99757.06;4358443;32;34169;-84
2023/09/28 08:53:22;;;;;;;14.23;8.02;;;;;;;23.03;45.20;99752.97;4358397;32;34046;-84
2023/09/28 08:55:50;;;;;;;14.25;6.45;;;;;;;22.79;44.83;99743.91;4353953;32;34926;-85
2023/09/28 08:58:18;;;;;;;12.85;6.70;;;;;;;23.04;45.78;99745.91;4358248;32;33829;-87
2023/09/28 09:00:46;;;;;;;13.05;6.68;;;;;;;23.39;45.56;99744.00;4346359;32;33543;-84
2023/09/28 09:03:14;;;;;;;13.20;6.68;;;;;;;23.70;44.78;99751.88;4344253;32;33710;-86
2023/09/28 09:05:42;;;;;;;11.43;6.87;;;;;;;23.92;43.39;99742.34;4343267;33;35152;-83
2023/09/28 09:08:10;;;;;;;14.45;7.35;;;;;;;23.73;43.79;99747.34;4343339;33;34125;-85
2023/09/28 09:10:40;;;;;;;15.98;6.53;;;;;;;23.54;44.27;99736.44;4350733;32;34536;-85
2023/09/28 09:13:19;;;;;;;15.23;7.53;;;;;;;23.84;44.59;99744.38;4359387;32;34782;-85
2023/09/28 09:15:47;;;;;;;14.80;7.22;;;;;;;24.37;42.59;99740.84;4359576;32;35023;-83
2023/09/28 09:18:21;;;;;;;13.15;7.28;;;;;;;24.10;43.86;99746.16;4359780;32;34334;-85
2023/09/28 09:20:50;;;;;;;14.20;7.10;;;;;;;24.04;43.89;99741.06;4359846;32;33332;-84
2023/09/28 09:23:17;;;;;;;13.95;7.03;;;;;;;24.16;43.21;99739.78;4360153;32;34139;-84
2023/09/28 09:25:53;;;;;;;15.52;6.75;;;;;;;23.93;43.86;99743.19;4360941;32;33897;-84
2023/09/28 09:28:29;;;;;;;15.88;7.85;;;;;;;24.00;42.79;99744.72;4371018;32;34973;-85
2023/09/28 09:30:57;;;;;;;13.65;6.78;;;;;;;24.07;43.73;99738.31;4372110;32;34538;-84
2023/09/28 09:33:26;;;;;;;12.52;7.05;;;;;;;24.46;43.01;99741.41;4354522;32;33753;-85
2023/09/28 09:35:53;;;;;;;13.23;7.43;;;;;;;24.66;42.04;99746.03;4346344;33;34048;-85
2023/09/28 09:38:29;;;;;;;15.32;7.20;;;;;;;24.27;42.94;99741.16;4368963;32;34999;-83
2023/09/28 09:41:02;;;;;;;19.95;7.20;;;;;;;24.50;43.38;99739.50;4357491;32;33929;-84
2023/09/28 09:43:35;;;;;;;15.55;6.87;;;;;;;24.70;42.32;99741.44;4372522;32;34661;-84
2023/09/28 09:46:06;;;;;;;12.43;6.80;;;;;;;24.91;41.94;99742.47;4360983;32;33647;-84
2023/09/28 09:48:41;;;;;;;15.13;6.45;;;;;;;24.96;44.16;99732.53;4359707;32;34103;-85
2023/09/28 09:51:12;;;;;;;14.13;7.53;;;;;;;25.10;43.45;99727.63;4361173;32;33253;-85
2023/09/28 09:53:43;;;;;;;12.35;6.50;;;;;;;25.02;43.04;99727.03;4361174;32;34489;-84
2023/09/28 09:56:13;;;;;;;13.62;7.28;;;;;;;25.43;40.69;99737.88;4361139;32;34971;-84
2023/09/28 09:58:48;;;;;;;18.48;6.60;;;;;;;25.48;40.89;99738.56;4359723;32;34945;-85
2023/09/28 10:01:17;;;;;;;16.30;6.82;;;;;;;25.37;39.63;99731.00;4358393;32;33345;-82
2023/09/28 10:03:47;;;;;;;16.73;6.30;;;;;;;25.77;40.17;99741.84;4358460;32;34935;-86
2023/09/28 10:06:16;;;;;;;13.40;6.55;;;;;;;25.79;40.50;99737.38;4359889;32;35074;-83
2023/09/28 10:08:45;;;;;;;14.90;7.30;;;;;;;25.64;40.51;99737.00;4360676;32;34949;-85
2023/09/28 10:11:13;;;;;;;15.70;7.28;;;;;;;25.73;40.70;99731.34;4360658;32;33625;-83
2023/09/28 10:13:41;;;;;;;13.45;6.47;;;;;;;25.58;41.01;99733.75;4347454;32;33983;-82
2023/09/28 10:16:12;;;;;;;16.90;6.55;;;;;;;26.04;39.90;99730.12;4349585;32;35001;-83
2023/09/28 10:18:43;;;;;;;10.25;5.68;;;;;;;25.76;41.24;99740.09;4360056;32;33976;-84
2023/09/28 10:21:11;;;;;;;11.63;5.62;;;;;;;25.94;41.12;99739.41;4358060;32;33384;-82
2023/09/28 10:23:40;;;;;;;14.65;6.82;;;;;;;25.74;37.78;99734.87;4354197;32;34069;-85
2023/09/28 10:26:11;;;;;;;16.17;6.55;;;;;;;25.93;37.92;99735.00;4351614;32;34063;-83
2023/09/28 10:29:09;;;;;;;14.48;6.40;;;;;;;26.27;39.22;99725.63;4352553;32;33969;-83
2023/09/28 10:31:39;;;;;;;15.70;5.90;;;;;;;26.40;41.13;99732.13;4344898;32;33484;-82
2023/09/28 10:34:26;;;;;;;11.18;5.55;;;;;;;26.34;37.64;99724.44;4348758;32;33966;-84
2023/09/28 10:37:08;;;;;;;14.10;5.90;;;;;;;26.54;36.88;99721.81;4352465;32;33476;-84
2023/09/28 10:39:35;;;;;;;12.60;5.60;;;;;;;26.26;39.93;99729.22;4345862;33;34014;-81
2023/09/28 10:42:15;;;;;;;10.82;6.43;;;;;;;26.31;36.76;99721.91;4350654;32;33448;-84
2023/09/28 10:44:55;;;;;;;11.35;5.95;;;;;;;26.52;37.40;99725.44;4351977;32;33999;-83
2023/09/28 10:47:23;;;;;;;14.23;5.93;;;;;;;26.91;35.68;99713.03;4354897;32;33752;-84
2023/09/28 10:49:59;;;;;;;14.90;6.07;;;;;;;26.65;39.61;99722.19;4350633;32;33874;-85
2023/09/28 10:52:28;;;;;;;17.90;6.53;;;;;;;26.84;39.72;99708.06;4361771;32;34387;-83
2023/09/28 10:54:56;;;;;;;13.13;5.55;;;;;;;26.86;40.18;99712.41;4359071;32;33510;-84
2023/09/28 10:57:29;;;;;;;11.75;5.05;;;;;;;27.00;36.60;99722.38;4349658;32;33978;-86
2023/09/28 11:00:00;;;;;;;12.37;6.20;;;;;;;27.01;37.75;99713.50;4356208;32;34112;-84
2023/09/28 11:02:28;;;;;;;9.43;5.20;;;;;;;26.90;39.00;99710.47;4347272;32;33214;-85
2023/09/28 11:05:00;;;;;;;16.15;6.05;;;;;;;26.61;38.24;99717.94;4356900;32;32529;-83
2023/09/28 11:07:28;;;;;;;13.60;5.62;;;;;;;26.95;35.07;99699.59;4352158;32;34198;-83
2023/09/28 11:09:58;;;;;;;12.02;5.22;;;;;;;27.29;36.50;99704.25;4360260;32;34096;-83
2023/09/28 11:12:28;;;;;;;16.35;5.40;;;;;;;27.23;36.05;99691.22;4357084;32;33768;-84
2023/09/28 11:14:58;;;;;;;8.77;5.05;;;;;;;27.13;36.81;99702.31;4368997;32;33692;-86
2023/09/28 11:17:26;;;;;;;10.07;5.22;;;;;;;27.02;36.66;99693.06;4369306;32;33954;-85
2023/09/28 11:19:56;;;;;;;11.63;5.53;;;;;;;27.36;37.27;99697.69;4369916;32;33420;-83
2023/09/28 11:22:23;;;;;;;8.80;5.00;;;;;;;27.24;36.77;99688.50;4359506;32;33842;-85
2023/09/28 11:24:51;;;;;;;13.02;5.93;;;;;;;27.24;38.51;99684.94;4353213;32;33530;-85
2023/09/28 11:27:19;;;;;;;11.63;5.10;;;;;;;27.17;36.02;99693.25;4348611;32;34062;-84
2023/09/28 11:29:56;;;;;;;8.90;4.35;;;;;;;26.99;34.60;99683.41;4351357;32;32648;-85
2023/09/28 11:32:24;;;;;;;11.75;4.95;;;;;;;27.55;31.82;99681.69;4359145;32;34481;-85
2023/09/28 11:34:53;;;;;;;10.88;4.72;;;;;;;27.52;34.61;99680.03;4359791;32;33466;-84
2023/09/28 11:37:23;;;;;;;10.98;4.87;;;;;;;27.70;34.21;99680.09;4358033;32;35002;-82
2023/09/28 11:39:51;;;;;;;8.60;4.32;;;;;;;26.96;33.11;99683.56;4356761;32;33802;-84